• Join FlightAware (Why Join?)
  • Login
  • US Flag 
11:40PM EST


 

Airport Tracker/Info


-or-


 

Live Flight TrackerFlight Track Log ✈ N561EJ ✈ 03-May-2013 ✈ KRYY - KMOB

Flight Track Log - Related Links

Times and Time Zones

All times are in EDT time to prevent confusion due to time zone crossing. See the N561EJ flight status page for this flight to view local times or setup timezone preferences in your user account.

Time Position Orientation Groundspeed Altitude Reporting Facility
EDT Latitude Longitude Course Direction KTS MPH feet Rate Location/Type
12:08AM 33.9203 -84.6297 224° Southwest 237 273 8,200  Level Atlanta Center
12:09AM 33.8697 -84.6892 224° Southwest 249 287 11,200 2,760 Climbing Atlanta Center
12:10AM 33.8172 -84.7514 225° Southwest 254 292 13,800 2,400 Climbing Atlanta Center
12:11AM 33.7561 -84.8283 226° Southwest 272 313 16,000 2,700 Climbing Atlanta Center
12:12AM 33.6485 -85.0167 226° Southwest  Level Estimated
12:12AM 33.6975 -84.8928 222° Southwest 310 357 19,200  Level Atlanta Center
12:13AM 33.6447 -84.9547 224° Southwest 287 330 22,700 2,700 Climbing Atlanta Center
12:14AM 33.5919 -85.0189 225° Southwest 273 314 24,600 1,800 Climbing Atlanta Center
12:15AM 33.5267 -85.0928 223° Southwest 280 322 26,400 1,620 Climbing Atlanta Center
12:16AM 33.4656 -85.1644 224° Southwest 300 345 27,900 780 Climbing Atlanta Center
12:17AM 33.3958 -85.2456 224° Southwest 329 379 28,000 1,020 Climbing Atlanta Center
12:18AM 33.3264 -85.3242 223° Southwest 348 400 30,000 960 Climbing Atlanta Center
12:19AM 33.2544 -85.4050 223° Southwest 353 406 30,000  Level Atlanta Center
12:20AM 33.1847 -85.4858 224° Southwest 358 412 30,000  Level Atlanta Center
12:21AM 33.1064 -85.5739 223° Southwest 364 419 30,000  Level Atlanta Center
12:22AM 33.0322 -85.6617 225° Southwest 376 433 30,000  Level Atlanta Center
12:23AM 32.9536 -85.7494 223° Southwest 381 438 30,000  Level Atlanta Center
12:24AM 32.8753 -85.8394 224° Southwest 381 438 30,000  Level Atlanta Center
12:25AM 32.7989 -85.9267 224° Southwest 381 438 30,000  Level Atlanta Center
12:26AM 32.7222 -86.0117 223° Southwest 381 438 30,000  Level Atlanta Center
12:27AM 32.6478 -86.0964 224° Southwest 381 438 30,000 -60 Level Atlanta Center
12:28AM 32.5861 -86.1689 225° Southwest 355 409 29,900  Descending Atlanta Center
12:29AM 32.5533 -86.2567 246° West 301 346 30,000  Climbing Atlanta Center
12:30AM 32.5367 -86.3672 260° West 316 364 30,000  Level Atlanta Center
12:31AM 32.5200 -86.4750 260° West 327 376 30,000  Level Atlanta Center
12:32AM 32.5097 -86.5708 263° West 319 367 30,000  Level Atlanta Center
12:33AM 32.4950 -86.6689 260° West 311 358 30,000  Level Atlanta Center
12:34AM 32.4458 -86.7267 225° Southwest 299 344 30,000  Level Atlanta Center
12:35AM 32.3944 -86.7889 226° Southwest 280 322 30,000  Level Atlanta Center
12:36AM 32.3408 -86.8489 223° Southwest 275 316 30,000 -300 Level Atlanta Center
12:37AM 32.2811 -86.9083 220° Southwest 275 316 29,400 -780 Descending Atlanta Center
12:38AM 32.2172 -86.9603 215° Southwest 281 323 28,500 -1,020 Descending Atlanta Center
12:39AM 32.1531 -87.0194 218° Southwest 289 333 27,400 -1,140 Descending Atlanta Center
12:40AM 32.0850 -87.0786 216° Southwest 299 344 26,300 -1,140 Descending Atlanta Center
12:41AM 32.0167 -87.1350 215° Southwest 299 344 25,200 -1,200 Descending Atlanta Center
12:43AM 31.8903 -87.2408 215° Southwest 284 327 23,100 -1,200 Descending Houston Center
12:44AM 31.8286 -87.2919 215° Southwest 271 312 22,000 -1,200 Descending Houston Center
12:45AM 31.7692 -87.3439 217° Southwest 266 306 20,800 -1,200 Descending Houston Center
12:46AM 31.7125 -87.3911 215° Southwest 249 287 19,700 -1,140 Descending Houston Center
12:47AM 31.6581 -87.4372 216° Southwest 242 278 18,600 -1,080 Descending Houston Center
12:48AM 31.6000 -87.4892 217° Southwest 257 296 17,600 -1,080 Descending Houston Center
12:49AM 31.5419 -87.5406 217° Southwest 261 300 16,500 -1,200 Descending Houston Center
12:50AM 31.4858 -87.5967 220° Southwest 264 304 15,300 -1,200 Descending Houston Center
12:51AM 31.4431 -87.6661 234° Southwest 262 302 14,200 -1,140 Descending Houston Center
12:52AM 31.4003 -87.7347 234° Southwest 261 300 13,100 -1,140 Descending Houston Center
12:53AM 31.3556 -87.8003 231° Southwest 259 298 12,000 -1,080 Descending Houston Center
12:54AM 31.3139 -87.8594 231° Southwest 243 280 11,000 -1,200 Descending Houston Center
12:55AM 31.2697 -87.9142 227° Southwest 234 269 9,600 -1,440 Descending Houston Center
12:56AM 31.2228 -87.9722 227° Southwest 241 277 8,100 -1,320 Descending Houston Center
12:57AM 31.1744 -88.0231 222° Southwest 245 282 7,000 -1,200 Descending Houston Center
12:58AM 31.1117 -88.0342 189° South 233 268 5,800 -1,200 Descending Houston Center
12:59AM 31.0469 -88.0319 178° South 230 265 4,600 -1,200 Descending Houston Center
01:00AM 30.9811 -88.0131 166° South 235 270 3,500 -780 Descending Houston Center
01:01AM 30.9122 -87.9978 169° South 244 281 3,100 -240 Descending Houston Center
01:02AM 30.8447 -87.9856 171° South 245 282 3,100  Level Houston Center
01:03AM 30.7794 -87.9825 178° South 240 276 3,100  Level Houston Center
01:04AM 30.7147 -87.9778 176° South 235 270 3,100  Level Houston Center
01:05AM 30.6514 -87.9728 176° South 231 266 3,100  Level Houston Center
01:06AM 30.5889 -87.9708 178° South 228 262 3,100 -60 Level Houston Center
01:07AM 30.5217 -87.9839 189° South 233 268 3,000  Descending Houston Center
01:08AM 30.5022 -88.0411 248° West 217 250 3,100  Climbing Houston Center
01:09AM 30.5161 -88.0933 287° West 190 219 3,100  Level Houston Center
01:10AM 30.5472 -88.1208 323° Northwest 163 188 3,100 -60 Level Houston Center
01:11AM 30.5750 -88.1444 324° Northwest 139 160 3,000 -360 Descending Houston Center
01:12AM 30.5989 -88.1667 321° Northwest 124 143 2,400 -600 Descending Houston Center
01:13AM 30.6169 -88.1819 324° Northwest 101 116 1,900 -480 Descending Houston Center
01:14AM 30.6361 -88.1975 325° Northwest 90 104 1,500 -480 Descending Houston Center
01:15AM 30.6575 -88.2150 325° Northwest 90 104 1,000 -540 Descending Houston Center